Atka, AK

3:38 PM HDT on September 01, 2015 (GMT -0900)
Atka | | Change Station
CLOSE
Current Station
Airport
Location: Atka,
Elevation: 56 ft
Nearby Weather Stations

Elev 56 ft 52.22 °N, 174.21 °W | Updated 2 minutes ago

Overcast
Overcast
54 °F
Feels Like 54 °F
N
17
Wind Variable Wind from West
Gusts 21 mph

Today
High -- | Low -- °F
--% Chance of Precip.
Yesterday
High -- | Low -- °F
Precip. -- in
7:48 AM 9:24 PM
Waning Gibbous, 85% visible
Pressure 29.78 in
Visibility 8.0 miles
Clouds Scattered Clouds 200 ft
Overcast 3200 ft
Dew Point 50 °F
Humidity 88%
Rainfall 0.00 in
Snow Depth Not available.
UV 2 out of 12
Pollen Not available.
Air Quality Not available.
Flu Activity Not available.
METAR PAAK 020036Z 28015G18KT 8SM SCT002 OVC032 12/10 A2978 RMK AO1
Pressure 29.78 in
Visibility 8.0 miles
Clouds Scattered Clouds 200 ft
Overcast 3200 ft
Dew Point 50 °F
Humidity 88%
Rainfall 0.00 in
Snow Depth Not available.
UV 2 out of 12
Pollen Not available.
Air Quality Not available.
Flu Activity Not available.
METAR PAAK 020036Z 28015G18KT 8SM SCT002 OVC032 12/10 A2978 RMK AO1

10-Day Weather Forecast

×

Almanac

Astronomy

Sep. 01, 2015 Rise Set
Actual Time
Civil Twilight
Nautical Twilight
Astronomical Twilight
Moon
Length of Visible Light
Length of Day
Tomorrow will be .
, % of the Moon is Illuminated

Today's Extremes

State Highs State Lows

Community

WunderPhotos

Upload Photos

1,851,657 photos uploaded!

WunderBlogs® & News

Nearby

Air Quality

  Air Quality AQ Index Pollutant
Not available.

Snow Depth

Station Depth Elevation

Earthquake Activity

City Distance Mag. Time & Date
Minimum magnitude displayed is 2.5.

Coastal Water Temperatures

Place Temperature

Stations

Nearby Weather Stations

Station Location Temp. Windchill Dew Point Humidity Wind Precip. Elev Updated Type